Time,TemperatureF,DewpointF,PressureIn,WindDirection,WindDirectionDegrees,WindSpeedMPH,WindSpeedGustMPH,Humidity,HourlyPrecipIn,Conditions,Clouds,dailyrainin,SoftwareType,DateUTC
2013-05-22 00:01:00,58.1,56.1,30.19,NW,315,4.0,4.0,93,0.00,,,0.46,meteohub,2013-05-22 04:01:00,
2013-05-22 00:02:00,58.1,56.1,30.19,NNW,338,3.0,4.0,93,0.00,,,0.46,meteohub,2013-05-22 04:02:00,
2013-05-22 00:07:00,58.3,56.3,30.19,WNW,292,4.0,4.0,93,0.00,,,0.46,meteohub,2013-05-22 04:07:00,
2013-05-22 00:12:00,58.3,56.3,30.16,WNW,292,4.0,4.0,93,0.00,,,0.46,meteohub,2013-05-22 04:12:00,
2013-05-22 00:17:00,58.1,56.1,30.16,NNW,338,4.0,4.0,93,0.00,,,0.46,meteohub,2013-05-22 04:17:00,
2013-05-22 00:22:00,58.1,56.3,30.16,WNW,292,3.0,4.0,94,0.00,,,0.46,meteohub,2013-05-22 04:22:00,
2013-05-22 00:27:00,58.1,56.3,30.16,WNW,292,3.0,4.0,94,0.00,,,0.46,meteohub,2013-05-22 04:27:00,
2013-05-22 00:32:00,58.1,56.3,30.16,NNW,338,5.0,5.0,94,0.00,,,0.46,meteohub,2013-05-22 04:32:00,
2013-05-22 00:37:00,58.1,56.3,30.16,NW,315,3.0,5.0,94,0.00,,,0.46,meteohub,2013-05-22 04:37:00,
2013-05-22 00:42:00,58.1,56.3,30.16,North,-999,-999.0,5.0,94,0.04,,,0.50,meteohub,2013-05-22 04:42:00,
2013-05-22 00:47:00,58.1,56.3,30.16,North,-999,-999.0,3.0,94,0.00,,,0.50,meteohub,2013-05-22 04:47:00,
2013-05-22 00:52:00,58.1,56.7,30.16,North,-999,-999.0,-999.0,95,0.00,,,0.50,meteohub,2013-05-22 04:52:00,
2013-05-22 00:57:00,58.1,56.7,30.16,North,-999,-999.0,-999.0,95,0.00,,,0.50,meteohub,2013-05-22 04:57:00,
2013-05-22 01:02:00,58.1,56.7,30.16,North,-999,-999.0,-999.0,95,0.00,,,0.50,meteohub,2013-05-22 05:02:00,
2013-05-22 01:07:00,58.1,56.7,30.16,North,-999,-999.0,-999.0,95,0.00,,,0.50,meteohub,2013-05-22 05:07:00,
2013-05-22 01:12:00,58.1,56.7,30.12,North,-999,-999.0,-999.0,95,0.00,,,0.50,meteohub,2013-05-22 05:12:00,
2013-05-22 01:17:00,58.1,56.7,30.12,North,-999,-999.0,-999.0,95,0.00,,,0.50,meteohub,2013-05-22 05:17:00,
2013-05-22 01:22:00,58.1,56.7,30.12,North,-999,-999.0,-999.0,95,0.00,,,0.50,meteohub,2013-05-22 05:22:00,
2013-05-22 01:27:00,57.9,56.5,30.13,North,-999,-999.0,-999.0,95,0.00,,,0.50,meteohub,2013-05-22 05:27:00,
2013-05-22 01:32:00,57.9,56.5,30.13,North,-999,-999.0,-999.0,95,0.00,,,0.50,meteohub,2013-05-22 05:32:00,
2013-05-22 01:37:00,58.5,57.0,30.12,North,-999,-999.0,-999.0,95,0.00,,,0.50,meteohub,2013-05-22 05:37:00,
2013-05-22 01:42:00,58.5,57.0,30.12,North,-999,-999.0,-999.0,95,0.00,,,0.50,meteohub,2013-05-22 05:42:00,
2013-05-22 01:47:00,58.5,56.7,30.12,North,-999,-999.0,-999.0,94,0.00,,,0.00,meteohub,2013-05-22 05:47:00,
2013-05-22 01:53:00,58.5,56.5,30.12,North,-999,-999.0,-999.0,93,0.00,,,0.00,meteohub,2013-05-22 05:53:00,
2013-05-22 01:58:00,58.5,55.8,30.12,North,-999,-999.0,-999.0,91,0.00,,,0.00,meteohub,2013-05-22 05:58:00,
2013-05-22 02:03:00,58.5,55.2,30.12,North,-999,-999.0,-999.0,89,0.00,,,0.00,meteohub,2013-05-22 06:03:00,
2013-05-22 02:08:00,58.6,55.0,30.12,North,-999,-999.0,-999.0,88,0.00,,,0.00,meteohub,2013-05-22 06:08:00,
2013-05-22 02:13:00,59.0,54.9,30.12,North,-999,-999.0,-999.0,86,0.00,,,0.00,meteohub,2013-05-22 06:13:00,
2013-05-22 02:18:00,59.2,54.3,30.12,North,-999,-999.0,-999.0,84,0.00,,,0.00,meteohub,2013-05-22 06:18:00,
2013-05-22 02:23:00,59.0,53.8,30.12,North,-999,-999.0,-999.0,83,0.00,,,0.00,meteohub,2013-05-22 06:23:00,
2013-05-22 02:28:00,59.2,53.8,30.12,North,-999,-999.0,-999.0,82,0.00,,,0.00,meteohub,2013-05-22 06:28:00,
2013-05-22 02:33:00,59.4,53.2,30.12,North,-999,-999.0,-999.0,80,0.00,,,0.00,meteohub,2013-05-22 06:33:00,
2013-05-22 02:38:00,59.4,52.9,30.12,North,-999,-999.0,-999.0,79,0.00,,,0.00,meteohub,2013-05-22 06:38:00,
2013-05-22 02:43:00,59.4,52.9,30.12,North,-999,-999.0,-999.0,79,0.00,,,0.00,meteohub,2013-05-22 06:43:00,
2013-05-22 02:48:00,59.4,52.5,30.12,North,-999,-999.0,-999.0,78,0.00,,,0.00,meteohub,2013-05-22 06:48:00,
2013-05-22 02:53:00,59.4,52.5,30.12,North,-999,-999.0,-999.0,78,0.00,,,0.00,meteohub,2013-05-22 06:53:00,
2013-05-22 02:58:00,59.2,52.3,30.12,North,-999,-999.0,-999.0,78,0.00,,,0.00,meteohub,2013-05-22 06:58:00,
2013-05-22 03:03:00,59.2,52.3,30.12,North,-999,-999.0,-999.0,78,0.00,,,0.00,meteohub,2013-05-22 07:03:00,
2013-05-22 03:08:00,59.0,52.2,30.08,North,-999,-999.0,-999.0,78,0.00,,,0.00,meteohub,2013-05-22 07:08:00,
2013-05-22 03:13:00,58.8,52.3,30.09,North,-999,-999.0,-999.0,79,0.00,,,0.00,meteohub,2013-05-22 07:13:00,
2013-05-22 03:18:00,58.6,52.2,30.09,North,-999,-999.0,-999.0,79,0.00,,,0.00,meteohub,2013-05-22 07:18:00,
2013-05-22 03:23:00,58.6,52.2,30.09,North,-999,-999.0,-999.0,79,0.00,,,0.00,meteohub,2013-05-22 07:23:00,
2013-05-22 03:28:00,58.6,52.2,30.09,North,-999,-999.0,-999.0,79,0.00,,,0.00,meteohub,2013-05-22 07:28:00,
2013-05-22 03:33:00,58.8,52.3,30.09,North,-999,-999.0,-999.0,79,0.00,,,0.00,meteohub,2013-05-22 07:33:00,
2013-05-22 03:38:00,58.8,52.3,30.09,North,-999,-999.0,-999.0,79,0.00,,,0.00,meteohub,2013-05-22 07:38:00,
2013-05-22 03:44:00,58.8,52.3,30.09,North,-999,-999.0,-999.0,79,0.00,,,0.00,meteohub,2013-05-22 07:44:00,
2013-05-22 03:49:00,58.6,52.2,30.09,North,-999,-999.0,-999.0,79,0.00,,,0.00,meteohub,2013-05-22 07:49:00,
2013-05-22 03:54:00,58.6,52.2,30.09,North,-999,-999.0,-999.0,79,0.00,,,0.00,meteohub,2013-05-22 07:54:00,
2013-05-22 03:59:00,58.6,52.5,30.09,North,-999,-999.0,-999.0,80,0.00,,,0.00,meteohub,2013-05-22 07:59:00,
2013-05-22 04:04:00,58.6,52.5,30.09,North,-999,-999.0,-999.0,80,0.00,,,0.00,meteohub,2013-05-22 08:04:00,
2013-05-22 04:09:00,58.5,52.3,30.09,North,-999,-999.0,-999.0,80,0.00,,,0.00,meteohub,2013-05-22 08:09:00,
2013-05-22 04:14:00,58.3,52.5,30.09,North,-999,-999.0,-999.0,81,0.00,,,0.00,meteohub,2013-05-22 08:14:00,
2013-05-22 04:19:00,57.9,52.2,30.09,North,-999,-999.0,-999.0,81,0.00,,,0.00,meteohub,2013-05-22 08:19:00,
2013-05-22 04:24:00,57.6,52.2,30.09,North,-999,-999.0,-999.0,82,0.00,,,0.00,meteohub,2013-05-22 08:24:00,
2013-05-22 04:29:00,57.2,51.8,30.10,North,-999,-999.0,-999.0,82,0.00,,,0.00,meteohub,2013-05-22 08:29:00,
2013-05-22 04:34:00,56.8,51.8,30.10,North,-999,-999.0,-999.0,83,0.00,,,0.00,meteohub,2013-05-22 08:34:00,
2013-05-22 04:39:00,56.8,52.0,30.10,North,-999,-999.0,-999.0,84,0.00,,,0.00,meteohub,2013-05-22 08:39:00,
2013-05-22 04:44:00,56.7,51.8,30.10,North,-999,-999.0,-999.0,84,0.00,,,0.00,meteohub,2013-05-22 08:44:00,
2013-05-22 04:49:00,56.5,52.0,30.10,North,-999,-999.0,-999.0,85,0.00,,,0.00,meteohub,2013-05-22 08:49:00,
2013-05-22 04:54:00,56.5,52.3,30.10,SSW,202,2.0,-999.0,86,0.00,,,0.00,meteohub,2013-05-22 08:54:00,
2013-05-22 04:59:00,56.8,53.2,30.10,North,-999,-999.0,2.0,88,0.00,,,0.00,meteohub,2013-05-22 08:59:00,
2013-05-22 05:04:00,57.4,54.1,30.09,North,-999,-999.0,2.0,89,0.00,,,0.00,meteohub,2013-05-22 09:04:00,
2013-05-22 05:09:00,57.6,54.7,30.09,SSE,158,4.0,-999.0,90,0.00,,,0.00,meteohub,2013-05-22 09:09:00,
2013-05-22 05:14:00,57.6,54.7,30.09,North,-999,-999.0,4.0,90,0.00,,,0.00,meteohub,2013-05-22 09:14:00,
2013-05-22 05:19:00,58.1,55.8,30.09,North,-999,-999.0,4.0,92,0.00,,,0.00,meteohub,2013-05-22 09:19:00,
2013-05-22 05:24:00,58.5,56.5,30.09,North,-999,-999.0,4.0,93,0.00,,,0.00,meteohub,2013-05-22 09:24:00,
2013-05-22 05:29:00,58.8,57.0,30.09,North,-999,-999.0,-999.0,94,0.00,,,0.00,meteohub,2013-05-22 09:29:00,
2013-05-22 05:34:00,59.0,57.2,30.08,North,-999,-999.0,-999.0,94,0.00,,,0.00,meteohub,2013-05-22 09:34:00,
2013-05-22 05:39:00,59.0,57.2,30.08,North,-999,-999.0,-999.0,94,0.00,,,0.00,meteohub,2013-05-22 09:39:00,
2013-05-22 05:44:00,59.0,57.2,30.08,North,-999,-999.0,-999.0,94,0.00,,,0.00,meteohub,2013-05-22 09:44:00,
2013-05-22 05:49:00,59.2,57.4,30.08,North,-999,-999.0,-999.0,94,0.00,,,0.00,meteohub,2013-05-22 09:49:00,
2013-05-22 05:54:00,58.8,57.0,30.09,North,-999,-999.0,-999.0,94,0.00,,,0.00,meteohub,2013-05-22 09:54:00,
2013-05-22 05:59:00,58.6,56.7,30.09,North,-999,-999.0,-999.0,93,0.00,,,0.00,meteohub,2013-05-22 09:59:00,
2013-05-22 06:04:00,58.5,56.5,30.09,North,-999,-999.0,-999.0,93,0.00,,,0.00,meteohub,2013-05-22 10:04:00,
2013-05-22 06:09:00,58.3,56.3,30.09,North,-999,-999.0,-999.0,93,0.00,,,0.00,meteohub,2013-05-22 10:09:00,
2013-05-22 06:14:00,58.5,56.5,30.09,North,-999,-999.0,-999.0,93,0.00,,,0.00,meteohub,2013-05-22 10:14:00,
2013-05-22 06:19:00,58.3,56.3,30.09,North,-999,-999.0,-999.0,93,0.00,,,0.00,meteohub,2013-05-22 10:19:00,
2013-05-22 06:24:00,58.5,56.7,30.09,North,-999,-999.0,-999.0,94,0.00,,,0.00,meteohub,2013-05-22 10:24:00,
2013-05-22 06:29:00,58.6,56.8,30.09,North,-999,-999.0,-999.0,94,0.00,,,0.00,meteohub,2013-05-22 10:29:00,
2013-05-22 06:34:00,58.8,57.0,30.09,North,-999,-999.0,-999.0,94,0.00,,,0.00,meteohub,2013-05-22 10:34:00,
2013-05-22 06:40:00,59.2,57.7,30.08,North,-999,-999.0,-999.0,95,0.00,,,0.00,meteohub,2013-05-22 10:40:00,
2013-05-22 06:45:00,59.0,57.6,30.08,North,-999,-999.0,-999.0,95,0.00,,,0.00,meteohub,2013-05-22 10:45:00,
2013-05-22 06:50:00,59.2,57.7,30.08,North,-999,-999.0,-999.0,95,0.00,,,0.00,meteohub,2013-05-22 10:50:00,
2013-05-22 06:55:00,59.4,57.9,30.08,North,-999,-999.0,-999.0,95,0.00,,,0.00,meteohub,2013-05-22 10:55:00,
2013-05-22 07:00:00,59.4,57.9,30.08,North,-999,-999.0,-999.0,95,0.00,,,0.00,meteohub,2013-05-22 11:00:00,
2013-05-22 07:05:00,59.4,57.9,30.08,North,-999,-999.0,-999.0,95,0.00,,,0.00,meteohub,2013-05-22 11:05:00,
2013-05-22 07:10:00,59.5,58.1,30.08,North,-999,-999.0,-999.0,95,0.00,,,0.00,meteohub,2013-05-22 11:10:00,
2013-05-22 07:15:00,59.5,58.1,30.08,North,-999,-999.0,-999.0,95,0.00,,,0.00,meteohub,2013-05-22 11:15:00,
2013-05-22 07:20:00,59.7,58.3,30.08,North,-999,-999.0,-999.0,95,0.00,,,0.00,meteohub,2013-05-22 11:20:00,
2013-05-22 07:25:00,59.9,58.5,30.11,North,-999,-999.0,-999.0,95,0.00,,,0.00,meteohub,2013-05-22 11:25:00,
2013-05-22 07:30:00,60.1,58.6,30.11,North,-999,-999.0,-999.0,95,0.00,,,0.00,meteohub,2013-05-22 11:30:00,
2013-05-22 07:35:00,60.3,58.8,30.11,North,-999,-999.0,-999.0,95,0.00,,,0.00,meteohub,2013-05-22 11:35:00,
2013-05-22 07:40:00,60.4,59.4,30.11,North,-999,-999.0,-999.0,96,0.00,,,0.00,meteohub,2013-05-22 11:40:00,
2013-05-22 07:45:00,60.8,59.4,30.10,North,-999,-999.0,-999.0,95,0.00,,,0.00,meteohub,2013-05-22 11:45:00,
2013-05-22 07:50:00,61.0,59.9,30.10,North,-999,-999.0,-999.0,96,0.00,,,0.00,meteohub,2013-05-22 11:50:00,
2013-05-22 07:55:00,61.2,60.1,30.07,North,-999,-999.0,-999.0,96,0.00,,,0.00,meteohub,2013-05-22 11:55:00,
2013-05-22 08:00:00,61.2,60.1,30.07,SE,135,3.0,3.0,96,0.00,,,0.00,meteohub,2013-05-22 12:00:00,
2013-05-22 08:05:00,61.3,60.3,30.06,North,-999,-999.0,3.0,96,0.00,,,0.00,meteohub,2013-05-22 12:05:00,
2013-05-22 08:10:00,61.5,60.1,30.10,North,-999,-999.0,3.0,95,0.00,,,0.00,meteohub,2013-05-22 12:10:00,
2013-05-22 08:15:00,61.5,60.1,30.10,SSE,158,6.0,6.0,95,0.00,,,0.00,meteohub,2013-05-22 12:15:00,
2013-05-22 08:20:00,61.7,60.3,30.10,SE,135,6.0,6.0,95,0.00,,,0.00,meteohub,2013-05-22 12:20:00,
2013-05-22 08:25:00,61.9,60.4,30.09,SSE,158,6.0,6.0,95,0.00,,,0.00,meteohub,2013-05-22 12:25:00,
2013-05-22 08:30:00,61.9,60.1,30.09,SE,135,5.0,6.0,94,0.00,,,0.00,meteohub,2013-05-22 12:30:00,
2013-05-22 08:35:00,62.2,60.4,30.09,SSE,158,7.0,7.0,94,0.00,,,0.00,meteohub,2013-05-22 12:35:00,
2013-05-22 08:40:00,62.4,60.6,30.09,ESE,112,4.0,7.0,94,0.00,,,0.00,meteohub,2013-05-22 12:40:00,
2013-05-22 08:45:00,62.8,61.0,30.09,SSE,158,1.0,7.0,94,0.00,,,0.00,meteohub,2013-05-22 12:45:00,
2013-05-22 08:50:00,63.1,61.2,30.09,SSE,158,3.0,6.0,93,0.00,,,0.00,meteohub,2013-05-22 12:50:00,
2013-05-22 08:55:00,63.7,61.7,30.08,SE,135,2.0,3.0,93,0.00,,,0.00,meteohub,2013-05-22 12:55:00,
2013-05-22 09:00:00,64.4,62.6,30.08,SSE,158,1.0,4.0,94,0.00,,,0.00,meteohub,2013-05-22 13:00:00,
2013-05-22 09:05:00,65.5,63.7,30.07,SE,135,2.0,4.0,94,0.00,,,0.00,meteohub,2013-05-22 13:05:00,
2013-05-22 09:10:00,66.4,64.2,30.06,SE,135,4.0,4.0,93,0.00,,,0.00,meteohub,2013-05-22 13:10:00,
2013-05-22 09:15:00,67.6,65.3,30.05,South,180,6.0,6.0,92,0.00,,,0.00,meteohub,2013-05-22 13:15:00,
2013-05-22 09:20:00,68.5,64.6,30.04,SSE,158,5.0,6.0,87,0.00,,,0.00,meteohub,2013-05-22 13:20:00,
2013-05-22 09:25:00,69.1,63.0,30.04,SE,135,6.0,7.0,81,0.00,,,0.00,meteohub,2013-05-22 13:25:00,
2013-05-22 09:30:00,68.9,61.3,30.04,SSE,158,6.0,7.0,77,0.00,,,0.00,meteohub,2013-05-22 13:30:00,
2013-05-22 09:35:00,69.1,60.8,30.04,SE,135,5.0,8.0,75,0.00,,,0.00,meteohub,2013-05-22 13:35:00,
2013-05-22 09:40:00,69.6,61.0,30.04,SSE,158,4.0,8.0,74,0.00,,,0.00,meteohub,2013-05-22 13:40:00,
2013-05-22 09:45:00,69.8,60.4,30.04,SE,135,6.0,8.0,72,0.00,,,0.00,meteohub,2013-05-22 13:45:00,
2013-05-22 09:50:00,70.2,60.8,30.03,North,-999,-999.0,6.0,72,0.00,,,0.00,meteohub,2013-05-22 13:50:00,
2013-05-22 09:55:00,70.5,60.6,30.03,SSE,158,4.0,6.0,71,0.00,,,0.00,meteohub,2013-05-22 13:55:00,
2013-05-22 10:01:00,70.7,60.1,30.03,SSE,158,4.0,4.0,69,0.00,,,0.00,meteohub,2013-05-22 14:01:00,
2013-05-22 10:06:00,71.2,60.6,30.02,SE,135,4.0,4.0,69,0.00,,,0.00,meteohub,2013-05-22 14:06:00,
2013-05-22 10:11:00,71.6,60.1,30.02,SSE,158,3.0,4.0,67,0.00,,,0.00,meteohub,2013-05-22 14:11:00,
2013-05-22 10:16:00,71.8,59.9,30.02,North,-999,-999.0,4.0,66,0.00,,,0.00,meteohub,2013-05-22 14:16:00,
2013-05-22 10:21:00,72.0,59.5,30.02,North,-999,-999.0,3.0,65,0.00,,,0.00,meteohub,2013-05-22 14:21:00,
2013-05-22 10:26:00,72.1,59.4,30.02,North,-999,-999.0,-999.0,64,0.00,,,0.00,meteohub,2013-05-22 14:26:00,
2013-05-22 10:31:00,72.3,59.5,30.01,SSE,158,8.0,-999.0,64,0.00,,,0.00,meteohub,2013-05-22 14:31:00,
2013-05-22 10:36:00,72.3,59.0,30.01,SSE,158,9.0,9.0,63,0.00,,,0.00,meteohub,2013-05-22 14:36:00,
2013-05-22 10:41:00,72.7,59.7,30.01,North,-999,-999.0,9.0,64,0.00,,,0.00,meteohub,2013-05-22 14:41:00,
2013-05-22 10:46:00,72.7,59.4,30.01,ESE,112,8.0,9.0,63,0.00,,,0.00,meteohub,2013-05-22 14:46:00,
2013-05-22 10:51:00,73.2,59.9,30.01,North,-999,-999.0,8.0,63,0.00,,,0.00,meteohub,2013-05-22 14:51:00,
2013-05-22 10:56:00,73.4,59.2,30.01,ESE,112,8.0,8.0,61,0.00,,,0.00,meteohub,2013-05-22 14:56:00,
2013-05-22 11:01:00,73.0,59.2,30.01,North,-999,-999.0,8.0,62,0.00,,,0.00,meteohub,2013-05-22 15:01:00,
2013-05-22 11:06:00,72.7,58.5,30.01,North,-999,-999.0,8.0,61,0.00,,,0.00,meteohub,2013-05-22 15:06:00,
2013-05-22 11:11:00,71.8,59.0,30.02,East,90,8.0,-999.0,64,0.00,,,0.00,meteohub,2013-05-22 15:11:00,
2013-05-22 11:16:00,72.3,59.5,30.01,North,-999,-999.0,8.0,64,0.00,,,0.00,meteohub,2013-05-22 15:16:00,
2013-05-22 11:21:00,72.3,59.9,30.01,SE,135,8.0,9.0,65,0.00,,,0.00,meteohub,2013-05-22 15:21:00,
2013-05-22 11:26:00,72.7,60.3,30.01,SSE,158,8.0,9.0,65,0.00,,,0.00,meteohub,2013-05-22 15:26:00,
2013-05-22 11:31:00,71.2,59.4,30.02,North,-999,-999.0,9.0,66,0.00,,,0.00,meteohub,2013-05-22 15:31:00,
2013-05-22 11:36:00,70.7,59.5,30.03,SSE,158,9.0,10.0,68,0.00,,,0.00,meteohub,2013-05-22 15:36:00,
2013-05-22 11:41:00,70.3,59.4,30.06,SSE,158,10.0,11.0,68,0.00,,,0.00,meteohub,2013-05-22 15:41:00,
2013-05-22 11:46:00,70.5,60.3,30.06,North,-999,-999.0,11.0,70,0.00,,,0.00,meteohub,2013-05-22 15:46:00,
2013-05-22 11:51:00,70.2,59.9,30.06,SSE,158,8.0,11.0,70,0.00,,,0.00,meteohub,2013-05-22 15:51:00,
2013-05-22 11:56:00,70.2,60.3,30.03,North,-999,-999.0,8.0,71,0.00,,,0.00,meteohub,2013-05-22 15:56:00,
2013-05-22 12:01:00,69.8,59.9,30.04,North,-999,-999.0,8.0,71,0.00,,,0.00,meteohub,2013-05-22 16:01:00,
2013-05-22 12:06:00,70.0,60.6,30.03,SSE,158,10.0,10.0,72,0.00,,,0.00,meteohub,2013-05-22 16:06:00,
2013-05-22 12:11:00,71.4,62.8,30.02,ESE,112,11.0,11.0,74,0.00,,,0.00,meteohub,2013-05-22 16:11:00,
2013-05-22 12:16:00,71.8,61.5,30.02,North,-999,-999.0,12.0,70,0.00,,,0.00,meteohub,2013-05-22 16:16:00,
2013-05-22 12:21:00,71.6,61.3,30.02,SSE,158,7.0,12.0,70,0.00,,,0.00,meteohub,2013-05-22 16:21:00,
2013-05-22 12:26:00,71.1,60.8,30.03,SSE,158,9.0,10.0,70,0.00,,,0.00,meteohub,2013-05-22 16:26:00,
2013-05-22 12:31:00,70.7,60.8,30.03,SSE,158,11.0,11.0,71,0.00,,,0.00,meteohub,2013-05-22 16:31:00,
2013-05-22 12:36:00,71.2,61.3,30.02,SSE,158,8.0,11.0,71,0.00,,,0.00,meteohub,2013-05-22 16:36:00,
2013-05-22 12:41:00,71.1,61.2,30.03,North,-999,-999.0,11.0,71,0.00,,,0.00,meteohub,2013-05-22 16:41:00,
2013-05-22 12:46:00,70.7,60.8,30.03,SSE,158,8.0,8.0,71,0.00,,,0.00,meteohub,2013-05-22 16:46:00,
2013-05-22 12:51:00,71.2,61.0,30.02,ESE,112,9.0,9.0,70,0.00,,,0.00,meteohub,2013-05-22 16:51:00,
2013-05-22 12:56:00,70.9,60.3,30.03,SSE,158,12.0,12.0,69,0.00,,,0.00,meteohub,2013-05-22 16:56:00,
2013-05-22 13:01:00,72.3,62.1,30.01,SE,135,8.0,12.0,70,0.00,,,0.00,meteohub,2013-05-22 17:01:00,
2013-05-22 13:06:00,73.2,61.5,30.01,ESE,112,11.0,12.0,67,0.00,,,0.00,meteohub,2013-05-22 17:06:00,
2013-05-22 13:11:00,73.4,61.3,30.01,ESE,112,8.0,15.0,66,0.00,,,0.00,meteohub,2013-05-22 17:11:00,
2013-05-22 13:16:00,72.5,60.4,30.01,SE,135,8.0,15.0,66,0.00,,,0.00,meteohub,2013-05-22 17:16:00,
2013-05-22 13:21:00,71.6,59.7,30.02,SSE,158,6.0,15.0,66,0.00,,,0.00,meteohub,2013-05-22 17:21:00,
2013-05-22 13:26:00,70.9,59.7,30.03,SSE,158,4.0,8.0,68,0.00,,,0.00,meteohub,2013-05-22 17:26:00,
2013-05-22 13:31:00,70.0,59.4,30.03,ESE,112,4.0,6.0,69,0.00,,,0.00,meteohub,2013-05-22 17:31:00,
2013-05-22 13:36:00,69.1,58.8,30.04,North,-999,-999.0,4.0,70,0.00,,,0.00,meteohub,2013-05-22 17:36:00,
2013-05-22 13:42:00,68.5,58.8,30.04,SSE,158,3.0,4.0,71,0.00,,,0.00,meteohub,2013-05-22 17:42:00,
2013-05-22 13:46:00,67.3,56.3,30.05,NE,45,4.0,4.0,68,0.00,,,0.00,meteohub,2013-05-22 17:46:00,
2013-05-22 13:51:00,65.1,52.2,30.07,WNW,292,3.0,5.0,63,0.05,,,0.05,meteohub,2013-05-22 17:51:00,
2013-05-22 13:57:00,63.1,52.3,30.05,WSW,248,2.0,6.0,68,0.05,,,0.05,meteohub,2013-05-22 17:57:00,
2013-05-22 14:01:00,61.9,51.6,30.06,ESE,112,3.0,6.0,69,0.05,,,0.05,meteohub,2013-05-22 18:01:00,
2013-05-22 14:06:00,60.3,50.0,30.07,ESE,112,5.0,11.0,69,0.05,,,0.05,meteohub,2013-05-22 18:06:00,
2013-05-22 14:12:00,59.7,50.4,30.11,North,0,3.0,11.0,71,0.05,,,0.05,meteohub,2013-05-22 18:12:00,
2013-05-22 14:17:00,59.7,51.4,30.11,WNW,292,2.0,11.0,74,0.05,,,0.05,meteohub,2013-05-22 18:17:00,
2013-05-22 14:22:00,59.5,52.0,30.11,NW,315,3.0,6.0,76,0.67,,,0.67,meteohub,2013-05-22 18:22:00,
2013-05-22 14:27:00,59.9,54.1,30.08,WSW,248,3.0,4.0,81,0.67,,,0.67,meteohub,2013-05-22 18:27:00,
2013-05-22 14:32:00,59.5,52.0,30.08,ENE,68,2.0,7.0,76,0.67,,,0.67,meteohub,2013-05-22 18:32:00,
2013-05-22 14:37:00,59.2,51.3,30.08,East,90,3.0,7.0,75,0.67,,,0.67,meteohub,2013-05-22 18:37:00,
2013-05-22 14:42:00,59.4,54.1,30.08,ESE,112,6.0,7.0,83,0.62,,,0.67,meteohub,2013-05-22 18:42:00,
2013-05-22 14:47:00,59.4,55.6,30.08,SE,135,11.0,11.0,87,0.62,,,0.67,meteohub,2013-05-22 18:47:00,
2013-05-22 14:52:00,59.2,53.8,30.08,ESE,112,5.0,11.0,82,0.00,,,0.67,meteohub,2013-05-22 18:52:00,
2013-05-22 14:57:00,59.0,50.7,30.12,SE,135,4.0,11.0,74,0.37,,,1.04,meteohub,2013-05-22 18:57:00,
2013-05-22 15:02:00,58.5,50.9,30.12,SSE,158,2.0,11.0,76,0.37,,,1.04,meteohub,2013-05-22 19:02:00,
2013-05-22 15:07:00,58.3,52.2,30.12,SSW,202,6.0,10.0,80,0.37,,,1.04,meteohub,2013-05-22 19:07:00,
2013-05-22 15:12:00,58.1,52.9,30.09,ENE,68,2.0,10.0,83,0.37,,,1.04,meteohub,2013-05-22 19:12:00,
2013-05-22 15:17:00,58.1,51.6,30.09,NW,315,5.0,6.0,79,0.37,,,1.04,meteohub,2013-05-22 19:17:00,
2013-05-22 15:22:00,58.3,52.5,30.09,North,0,5.0,6.0,81,0.00,,,1.04,meteohub,2013-05-22 19:22:00,
2013-05-22 15:27:00,58.6,53.2,30.09,NNE,22,6.0,8.0,82,0.00,,,1.04,meteohub,2013-05-22 19:27:00,
2013-05-22 15:32:00,59.2,54.0,30.08,WNW,292,4.0,8.0,83,0.00,,,1.04,meteohub,2013-05-22 19:32:00,
2013-05-22 15:37:00,60.6,56.5,30.07,WNW,292,3.0,8.0,86,0.04,,,1.08,meteohub,2013-05-22 19:37:00,
2013-05-22 15:42:00,63.7,60.6,30.05,NW,315,2.0,7.0,90,0.04,,,1.08,meteohub,2013-05-22 19:42:00,
2013-05-22 15:47:00,66.7,63.7,30.02,NNE,22,4.0,5.0,90,0.04,,,1.08,meteohub,2013-05-22 19:47:00,
2013-05-22 15:52:00,69.1,63.0,30.01,ESE,112,4.0,4.0,81,0.04,,,1.08,meteohub,2013-05-22 19:52:00,
2013-05-22 15:57:00,70.7,60.8,29.99,North,-999,-999.0,4.0,71,0.04,,,1.08,meteohub,2013-05-22 19:57:00,
2013-05-22 16:02:00,72.0,58.3,29.99,North,-999,-999.0,4.0,62,0.04,,,1.08,meteohub,2013-05-22 20:02:00,
2013-05-22 16:07:00,72.1,57.9,29.99,North,-999,-999.0,-999.0,61,0.04,,,1.08,meteohub,2013-05-22 20:07:00,
2013-05-22 16:12:00,71.6,56.1,29.95,North,-999,-999.0,-999.0,58,0.04,,,1.08,meteohub,2013-05-22 20:12:00,
2013-05-22 16:17:00,71.2,55.2,29.96,North,-999,-999.0,-999.0,57,0.04,,,1.08,meteohub,2013-05-22 20:17:00,
2013-05-22 16:22:00,70.2,52.2,29.96,SE,135,9.0,-999.0,53,0.00,,,1.08,meteohub,2013-05-22 20:22:00,
2013-05-22 16:27:00,68.0,50.2,29.98,North,-999,-999.0,9.0,53,0.00,,,1.08,meteohub,2013-05-22 20:27:00,
2013-05-22 16:32:00,66.2,49.6,29.99,SSE,158,8.0,9.0,55,0.00,,,1.08,meteohub,2013-05-22 20:32:00,
2013-05-22 16:37:00,65.3,51.4,30.00,SSE,158,8.0,9.0,61,0.00,,,1.08,meteohub,2013-05-22 20:37:00,
2013-05-22 16:42:00,64.9,52.0,30.00,SE,135,6.0,9.0,63,0.00,,,1.08,meteohub,2013-05-22 20:42:00,
2013-05-22 16:47:00,65.5,54.3,30.00,North,-999,-999.0,9.0,67,0.00,,,1.08,meteohub,2013-05-22 20:47:00,
2013-05-22 16:52:00,66.2,55.4,29.99,ESE,112,6.0,9.0,68,0.00,,,1.08,meteohub,2013-05-22 20:52:00,
2013-05-22 16:57:00,66.0,54.0,30.00,SSE,158,9.0,10.0,65,0.00,,,1.08,meteohub,2013-05-22 20:57:00,
2013-05-22 17:02:00,65.8,52.9,30.00,SSE,158,10.0,10.0,63,0.00,,,1.08,meteohub,2013-05-22 21:02:00,
2013-05-22 17:07:00,65.7,53.6,30.00,SSE,158,6.0,10.0,65,0.00,,,1.08,meteohub,2013-05-22 21:07:00,
2013-05-22 17:12:00,65.7,54.0,30.03,SSE,158,6.0,12.0,66,0.00,,,1.08,meteohub,2013-05-22 21:12:00,
2013-05-22 17:17:00,64.8,53.1,30.04,SSE,158,6.0,12.0,66,0.00,,,1.08,meteohub,2013-05-22 21:17:00,
2013-05-22 17:22:00,64.2,53.4,30.04,SE,135,8.0,8.0,68,0.00,,,1.08,meteohub,2013-05-22 21:22:00,
2013-05-22 17:27:00,63.7,53.2,30.01,SSE,158,8.0,8.0,69,0.00,,,1.08,meteohub,2013-05-22 21:27:00,
2013-05-22 17:32:00,63.1,52.9,30.02,SSE,158,8.0,9.0,69,0.00,,,1.08,meteohub,2013-05-22 21:32:00,
2013-05-22 17:37:00,62.8,52.9,30.02,SE,135,6.0,9.0,70,0.00,,,1.08,meteohub,2013-05-22 21:37:00,
2013-05-22 17:42:00,62.4,53.2,30.02,SE,135,5.0,9.0,72,0.00,,,1.08,meteohub,2013-05-22 21:42:00,
2013-05-22 17:47:00,62.2,54.1,30.02,SSE,158,6.0,8.0,75,0.00,,,1.08,meteohub,2013-05-22 21:47:00,
2013-05-22 17:52:00,62.1,54.9,30.03,SSE,158,6.0,8.0,77,0.00,,,1.08,meteohub,2013-05-22 21:52:00,
2013-05-22 17:57:00,61.9,55.0,30.03,SSE,158,6.0,8.0,78,0.00,,,1.08,meteohub,2013-05-22 21:57:00,
2013-05-22 18:02:00,61.7,55.0,30.03,North,-999,-999.0,8.0,79,0.00,,,1.08,meteohub,2013-05-22 22:02:00,
2013-05-22 18:07:00,61.3,55.0,30.03,North,-999,-999.0,8.0,80,0.00,,,1.08,meteohub,2013-05-22 22:07:00,
2013-05-22 18:12:00,61.0,55.0,30.07,North,-999,-999.0,6.0,81,0.00,,,1.08,meteohub,2013-05-22 22:12:00,
2013-05-22 18:17:00,60.8,55.2,30.07,SSE,158,6.0,6.0,82,0.00,,,1.08,meteohub,2013-05-22 22:17:00,
2013-05-22 18:22:00,60.6,55.0,30.07,SSE,158,6.0,6.0,82,0.00,,,1.08,meteohub,2013-05-22 22:22:00,
2013-05-22 18:27:00,60.6,55.8,30.04,North,-999,-999.0,6.0,84,0.00,,,1.08,meteohub,2013-05-22 22:27:00,
2013-05-22 18:32:00,60.4,55.6,30.04,SSE,158,6.0,6.0,84,0.00,,,1.08,meteohub,2013-05-22 22:32:00,
2013-05-22 18:37:00,60.4,55.9,30.04,WSW,248,0.0,6.0,85,0.00,,,1.08,meteohub,2013-05-22 22:37:00,
2013-05-22 18:42:00,60.4,55.9,30.07,NE,45,3.0,6.0,85,0.00,,,1.08,meteohub,2013-05-22 22:42:00,
2013-05-22 18:47:00,60.4,55.6,30.07,NNE,22,2.0,3.0,84,0.00,,,1.08,meteohub,2013-05-22 22:47:00,
2013-05-22 18:52:00,60.6,55.4,30.07,North,-999,-999.0,3.0,83,0.00,,,1.08,meteohub,2013-05-22 22:52:00,
2013-05-22 18:57:00,60.6,54.7,30.07,SE,135,2.0,3.0,81,0.00,,,1.08,meteohub,2013-05-22 22:57:00,
2013-05-22 19:01:00,60.4,54.9,30.07,North,-999,-999.0,2.0,82,0.00,,,1.08,meteohub,2013-05-22 23:01:00,
2013-05-22 19:06:00,60.1,54.3,30.07,North,-999,-999.0,2.0,81,0.00,,,1.08,meteohub,2013-05-22 23:06:00,
2013-05-22 19:11:00,59.9,54.3,30.08,North,-999,-999.0,-999.0,82,0.00,,,1.08,meteohub,2013-05-22 23:11:00,
2013-05-22 19:17:00,59.5,54.3,30.08,North,-999,-999.0,-999.0,83,0.00,,,1.08,meteohub,2013-05-22 23:17:00,
2013-05-22 19:21:00,59.4,54.1,30.08,SSE,158,3.0,3.0,83,0.00,,,1.08,meteohub,2013-05-22 23:21:00,
2013-05-22 19:27:00,59.2,54.3,30.08,SSE,158,4.0,4.0,84,0.00,,,1.08,meteohub,2013-05-22 23:27:00,
2013-05-22 19:32:00,59.2,54.7,30.08,North,-999,-999.0,4.0,85,0.09,,,1.17,meteohub,2013-05-22 23:32:00,
2013-05-22 19:37:00,59.0,54.9,30.08,SSW,202,3.0,4.0,86,0.09,,,1.17,meteohub,2013-05-22 23:37:00,
2013-05-22 19:42:00,59.0,55.2,30.08,North,-999,-999.0,3.0,87,0.09,,,1.17,meteohub,2013-05-22 23:42:00,
2013-05-22 19:47:00,58.8,55.0,30.09,SSE,158,3.0,3.0,87,0.09,,,1.17,meteohub,2013-05-22 23:47:00,
2013-05-22 19:52:00,58.6,55.0,30.09,SSE,158,4.0,4.0,88,0.17,,,1.25,meteohub,2013-05-22 23:52:00,
2013-05-22 19:57:00,58.6,55.0,30.05,South,180,3.0,4.0,88,0.17,,,1.25,meteohub,2013-05-22 23:57:00,
2013-05-22 20:02:00,58.5,55.2,30.05,North,-999,-999.0,4.0,89,0.17,,,1.25,meteohub,2013-05-23 00:02:00,
2013-05-22 20:07:00,58.3,55.4,30.06,North,-999,-999.0,3.0,90,0.12,,,1.29,meteohub,2013-05-23 00:07:00,
2013-05-22 20:11:00,58.3,55.4,30.09,SSE,158,4.0,4.0,90,0.12,,,1.29,meteohub,2013-05-23 00:11:00,
2013-05-22 20:16:00,58.1,55.4,30.09,SE,135,5.0,5.0,91,0.12,,,1.29,meteohub,2013-05-23 00:16:00,
2013-05-22 20:21:00,57.9,55.4,30.09,North,-999,-999.0,5.0,91,0.16,,,1.33,meteohub,2013-05-23 00:21:00,
2013-05-22 20:27:00,57.7,55.2,30.09,North,-999,-999.0,5.0,91,0.16,,,1.33,meteohub,2013-05-23 00:27:00,
2013-05-22 20:32:00,57.6,55.0,30.09,SE,135,4.0,4.0,91,0.16,,,1.37,meteohub,2013-05-23 00:32:00,
2013-05-22 20:37:00,57.6,55.0,30.09,North,-999,-999.0,4.0,91,0.16,,,1.37,meteohub,2013-05-23 00:37:00,
2013-05-22 20:42:00,57.6,55.0,30.09,North,-999,-999.0,4.0,91,0.20,,,1.41,meteohub,2013-05-23 00:42:00,
2013-05-22 20:47:00,57.4,55.0,30.09,SSE,158,0.0,-999.0,92,0.16,,,1.41,meteohub,2013-05-23 00:47:00,
2013-05-22 20:52:00,57.4,55.0,30.09,North,-999,-999.0,0.0,92,0.16,,,1.41,meteohub,2013-05-23 00:52:00,
2013-05-22 20:57:00,57.4,55.0,30.09,North,-999,-999.0,0.0,92,0.12,,,1.41,meteohub,2013-05-23 00:57:00,
2013-05-22 21:02:00,57.4,55.0,30.09,North,-999,-999.0,0.0,92,0.12,,,1.41,meteohub,2013-05-23 01:02:00,
2013-05-22 21:07:00,57.4,55.4,30.09,SSE,158,5.0,-999.0,93,0.08,,,1.41,meteohub,2013-05-23 01:07:00,
2013-05-22 21:12:00,57.4,55.4,30.09,North,-999,-999.0,5.0,93,0.08,,,1.41,meteohub,2013-05-23 01:12:00,
2013-05-22 21:17:00,57.6,55.8,30.09,North,-999,-999.0,5.0,94,0.08,,,1.41,meteohub,2013-05-23 01:17:00,
2013-05-22 21:22:00,57.6,56.1,30.09,SSE,158,8.0,8.0,95,0.04,,,1.41,meteohub,2013-05-23 01:22:00,
2013-05-22 21:27:00,57.6,56.1,30.09,SSE,158,6.0,8.0,95,0.04,,,1.41,meteohub,2013-05-23 01:27:00,
2013-05-22 21:32:00,57.7,56.7,30.09,ESE,112,5.0,8.0,96,0.00,,,1.41,meteohub,2013-05-23 01:32:00,
2013-05-22 21:37:00,57.7,56.7,30.09,SSE,158,7.0,8.0,96,0.00,,,1.41,meteohub,2013-05-23 01:37:00,
2013-05-22 21:42:00,57.7,56.7,30.09,SSE,158,5.0,7.0,96,0.00,,,1.41,meteohub,2013-05-23 01:42:00,
2013-05-22 21:47:00,57.9,56.8,30.09,ESE,112,4.0,7.0,96,0.00,,,1.41,meteohub,2013-05-23 01:47:00,
2013-05-22 21:52:00,57.9,56.8,30.09,SE,135,4.0,7.0,96,0.00,,,1.41,meteohub,2013-05-23 01:52:00,
2013-05-22 21:57:00,57.9,56.8,30.13,ESE,112,2.0,6.0,96,0.00,,,1.41,meteohub,2013-05-23 01:57:00,
2013-05-22 22:02:00,57.7,56.7,30.13,West,270,0.0,6.0,96,0.00,,,1.41,meteohub,2013-05-23 02:02:00,
2013-05-22 22:07:00,57.6,56.5,30.13,NW,315,0.0,4.0,96,0.00,,,1.41,meteohub,2013-05-23 02:07:00,
2013-05-22 22:12:00,57.4,55.9,30.09,NNW,338,2.0,3.0,95,0.00,,,1.41,meteohub,2013-05-23 02:12:00,
2013-05-22 22:17:00,57.2,55.8,30.10,WNW,292,1.0,3.0,95,0.00,,,1.41,meteohub,2013-05-23 02:17:00,
2013-05-22 22:22:00,57.2,55.8,30.10,NW,315,2.0,3.0,95,0.00,,,1.41,meteohub,2013-05-23 02:22:00,
2013-05-22 22:27:00,57.2,55.8,30.10,NW,315,3.0,3.0,95,0.00,,,1.41,meteohub,2013-05-23 02:27:00,
2013-05-22 22:32:00,57.2,55.8,30.10,WNW,292,3.0,3.0,95,0.00,,,1.41,meteohub,2013-05-23 02:32:00,
2013-05-22 22:37:00,57.0,55.9,30.10,NW,315,2.0,3.0,96,0.00,,,1.41,meteohub,2013-05-23 02:37:00,
2013-05-22 22:42:00,57.0,55.9,30.10,NW,315,3.0,3.0,96,0.00,,,1.41,meteohub,2013-05-23 02:42:00,
2013-05-22 22:47:00,57.2,56.1,30.10,NW,315,3.0,4.0,96,0.00,,,1.41,meteohub,2013-05-23 02:47:00,
2013-05-22 22:52:00,57.2,56.1,30.10,NW,315,2.0,4.0,96,0.00,,,1.41,meteohub,2013-05-23 02:52:00,
2013-05-22 22:57:00,57.2,56.1,30.10,WNW,292,2.0,4.0,96,0.00,,,1.41,meteohub,2013-05-23 02:57:00,
2013-05-22 23:02:00,57.2,56.3,30.10,NW,315,3.0,3.0,97,0.00,,,1.41,meteohub,2013-05-23 03:02:00,
2013-05-22 23:07:00,57.4,56.5,30.09,NW,315,2.0,3.0,97,0.00,,,1.41,meteohub,2013-05-23 03:07:00,
2013-05-22 23:12:00,57.2,56.3,30.10,WNW,292,3.0,3.0,97,0.00,,,1.41,meteohub,2013-05-23 03:12:00,
2013-05-22 23:17:00,57.2,56.3,30.10,NNW,338,3.0,3.0,97,0.00,,,1.41,meteohub,2013-05-23 03:17:00,
2013-05-22 23:22:00,57.2,56.3,30.10,WNW,292,3.0,3.0,97,0.00,,,1.41,meteohub,2013-05-23 03:22:00,
2013-05-22 23:28:00,57.2,56.1,30.10,WNW,292,0.0,3.0,96,0.00,,,1.41,meteohub,2013-05-23 03:28:00,
2013-05-22 23:33:00,57.4,56.5,30.09,SSE,158,13.0,13.0,97,0.00,,,1.41,meteohub,2013-05-23 03:33:00,
2013-05-22 23:38:00,57.6,56.7,30.09,SSE,158,9.0,14.0,97,0.00,,,1.41,meteohub,2013-05-23 03:38:00,
2013-05-22 23:43:00,57.6,57.0,30.09,SE,135,11.0,14.0,98,0.00,,,1.41,meteohub,2013-05-23 03:43:00,
2013-05-22 23:48:00,57.6,57.0,30.09,SSE,158,12.0,14.0,98,0.00,,,1.41,meteohub,2013-05-23 03:48:00,
2013-05-22 23:53:00,57.6,57.0,30.09,SE,135,6.0,14.0,98,0.00,,,1.41,meteohub,2013-05-23 03:53:00,
2013-05-22 23:58:00,57.6,57.0,30.09,SSE,158,4.0,13.0,98,0.00,,,1.41,meteohub,2013-05-23 03:58:00,